Time;durP1;ratioP1;P1;durP2;ratioP2;P2;SDS_P1;SDS_P2;PMS_P1;PMS_P2;Temp;Humidity;BMP_temperature;BMP_pressure;BME280_temperature;BME280_humidity;BME280_pressure;Samples;Min_cycle;Max_cycle;Signal;HPM_P1;HPM_P2
2022/09/28 00:13:35;;;;;;;6.25;3.95;;;;;;;;;;10491002;22;20094;-84
2022/09/28 00:17:38;;;;;;;7.82;4.55;;;;;;;;;;10508288;22;20022;-85
2022/09/28 00:21:42;;;;;;;9.52;5.25;;;;;;;;;;10491009;22;20450;-85
2022/09/28 00:25:45;;;;;;;10.60;6.32;;;;;;;;;;10490915;22;20038;-85
2022/09/28 00:29:47;;;;;;;14.25;7.07;;;;;;;;;;10491001;22;20019;-85
2022/09/28 00:33:50;;;;;;;16.05;9.35;;;;;;;;;;10490882;22;20026;-85
2022/09/28 00:37:54;;;;;;;15.30;8.82;;;;;;;;;;10489837;22;20045;-85
2022/09/28 00:41:56;;;;;;;15.10;8.90;;;;;;;;;;10490842;22;20095;-85
2022/09/28 00:46:02;;;;;;;16.65;9.27;;;;;;;;;;10490943;22;20050;-85
2022/09/28 00:50:09;;;;;;;14.98;8.75;;;;;;;;;;10507366;22;20021;-84
2022/09/28 00:54:16;;;;;;;16.17;8.80;;;;;;;;;;10508096;22;20018;-89
2022/09/28 00:58:20;;;;;;;13.73;7.43;;;;;;;;;;10507336;22;20097;-87
2022/09/28 01:02:23;;;;;;;15.75;8.45;;;;;;;;;;10490596;22;20023;-88
2022/09/28 01:06:32;;;;;;;13.75;8.70;;;;;;;;;;10490494;22;20022;-89
2022/09/28 01:10:35;;;;;;;16.23;9.13;;;;;;;;;;10508692;22;20018;-87
2022/09/28 01:14:38;;;;;;;17.48;8.45;;;;;;;;;;10490634;22;20472;-86
2022/09/28 01:18:49;;;;;;;12.65;7.57;;;;;;;;;;10490716;22;20054;-87
2022/09/28 01:23:32;;;;;;;13.77;8.00;;;;;;;;;;10507221;22;20082;-87
2022/09/28 01:27:39;;;;;;;12.60;7.00;;;;;;;;;;10489491;22;20469;-90
2022/09/28 01:31:46;;;;;;;11.85;7.05;;;;;;;;;;10490500;22;20018;-86
2022/09/28 01:35:53;;;;;;;10.55;6.90;;;;;;;;;;10507352;22;20019;-86
2022/09/28 01:39:57;;;;;;;14.20;7.53;;;;;;;;;;10506965;22;20019;-88
2022/09/28 01:44:04;;;;;;;12.13;7.38;;;;;;;;;;10489848;22;20018;-89
2022/09/28 01:48:10;;;;;;;11.57;7.38;;;;;;;;;;10507053;22;20069;-85
2022/09/28 01:52:17;;;;;;;14.63;7.63;;;;;;;;;;10507200;22;20022;-89
2022/09/28 01:56:30;;;;;;;13.02;8.73;;;;;;;;;;10507347;22;20359;-86
2022/09/28 02:00:36;;;;;;;14.27;7.97;;;;;;;;;;10489188;22;20097;-89
2022/09/28 02:04:42;;;;;;;15.63;8.85;;;;;;;;;;10470965;22;20049;-87
2022/09/28 02:08:50;;;;;;;16.52;8.77;;;;;;;;;;10491167;22;20011;-86
2022/09/28 02:12:58;;;;;;;15.60;8.30;;;;;;;;;;10511242;22;20019;-86
2022/09/28 02:17:02;;;;;;;12.45;7.32;;;;;;;;;;10510163;22;20029;-86
2022/09/28 02:21:11;;;;;;;12.10;7.35;;;;;;;;;;10492615;22;20025;-86
2022/09/28 02:25:22;;;;;;;14.00;6.85;;;;;;;;;;10510087;22;20459;-86
2022/09/28 02:29:25;;;;;;;;;;;;;;;;;;10510478;22;20385;-88
2022/09/28 02:33:33;;;;;;;10.55;7.18;;;;;;;;;;10492705;22;19925;-87
2022/09/28 02:37:35;;;;;;;11.32;7.13;;;;;;;;;;10509802;22;20019;-86
2022/09/28 02:41:52;;;;;;;11.93;7.03;;;;;;;;;;10492267;22;20019;-86
2022/09/28 02:46:06;;;;;;;12.18;7.45;;;;;;;;;;10509678;22;20015;-86
2022/09/28 02:50:18;;;;;;;18.73;8.07;;;;;;;;;;10509545;22;20018;-86
2022/09/28 02:54:37;;;;;;;14.38;7.55;;;;;;;;;;10509664;22;20014;-86
2022/09/28 02:58:49;;;;;;;11.40;7.53;;;;;;;;;;10509371;22;20019;-86
2022/09/28 03:03:02;;;;;;;12.27;7.40;;;;;;;;;;10508469;22;20019;-86
2022/09/28 03:07:07;;;;;;;;;;;;;;;;;;10509962;22;20026;-86
2022/09/28 03:11:16;;;;;;;14.95;8.05;;;;;;;;;;10509283;22;19918;-86
2022/09/28 03:15:24;;;;;;;14.93;8.25;;;;;;;;;;10509110;22;20019;-86
2022/09/28 03:19:31;;;;;;;15.70;8.02;;;;;;;;;;10508711;22;20068;-87
2022/09/28 03:23:35;;;;;;;13.80;8.40;;;;;;;;;;10492106;22;20474;-86
2022/09/28 03:27:37;;;;;;;14.80;8.15;;;;;;;;;;10491664;22;20019;-86
2022/09/28 03:31:40;;;;;;;14.95;7.57;;;;;;;;;;10491713;22;20347;-86
2022/09/28 03:35:42;;;;;;;15.00;7.78;;;;;;;;;;10491591;22;20023;-86
2022/09/28 03:39:46;;;;;;;11.65;7.18;;;;;;;;;;10491717;22;20470;-87
2022/09/28 03:43:48;;;;;;;15.45;8.35;;;;;;;;;;10491452;22;20023;-86
2022/09/28 03:47:51;;;;;;;13.63;8.18;;;;;;;;;;10491610;22;20022;-86
2022/09/28 03:51:54;;;;;;;18.95;7.97;;;;;;;;;;10491558;22;20486;-86
2022/09/28 03:56:02;;;;;;;13.73;7.40;;;;;;;;;;10491472;22;20343;-86
2022/09/28 04:00:06;;;;;;;13.85;7.68;;;;;;;;;;10508422;22;20052;-86
2022/09/28 04:04:10;;;;;;;12.90;7.05;;;;;;;;;;10491080;22;20025;-86
2022/09/28 04:08:13;;;;;;;14.32;7.53;;;;;;;;;;10490994;22;20015;-86
2022/09/28 04:12:17;;;;;;;14.10;7.20;;;;;;;;;;10491602;22;20038;-86
2022/09/28 04:16:19;;;;;;;14.38;7.28;;;;;;;;;;10491025;22;20014;-86
2022/09/28 04:20:22;;;;;;;11.90;7.03;;;;;;;;;;10490854;22;20023;-86
2022/09/28 04:24:24;;;;;;;13.23;7.78;;;;;;;;;;10491204;22;20023;-86
2022/09/28 04:32:48;;;;;;;13.25;6.95;;;;;;;;;;10507833;22;20014;-86
2022/09/28 04:36:50;;;;;;;13.30;7.43;;;;;;;;;;10490726;22;20015;-86
2022/09/28 04:40:52;;;;;;;11.20;6.80;;;;;;;;;;10490666;22;20019;-86
2022/09/28 04:44:57;;;;;;;11.35;5.55;;;;;;;;;;10490655;22;20023;-86
2022/09/28 04:49:01;;;;;;;12.00;7.05;;;;;;;;;;10490490;22;20011;-86
2022/09/28 04:53:04;;;;;;;11.27;7.00;;;;;;;;;;10489861;22;20344;-85
2022/09/28 04:57:06;;;;;;;11.45;6.18;;;;;;;;;;10490283;22;20087;-85
2022/09/28 05:01:12;;;;;;;13.60;7.47;;;;;;;;;;10490290;22;20023;-86
2022/09/28 05:05:15;;;;;;;12.07;6.43;;;;;;;;;;10496336;22;20030;-87
2022/09/28 05:09:18;;;;;;;15.27;6.50;;;;;;;;;;10488179;22;20014;-87
2022/09/28 05:13:20;;;;;;;12.25;6.57;;;;;;;;;;10488435;22;20014;-88
2022/09/28 05:17:24;;;;;;;16.92;7.28;;;;;;;;;;10488705;22;20439;-86
2022/09/28 05:21:28;;;;;;;13.25;7.18;;;;;;;;;;10486297;22;20023;-86
2022/09/28 05:25:31;;;;;;;14.85;6.82;;;;;;;;;;10486781;22;20447;-86
2022/09/28 05:29:33;;;;;;;16.20;7.28;;;;;;;;;;10488856;22;20019;-88
2022/09/28 05:33:37;;;;;;;12.93;7.53;;;;;;;;;;10488522;22;20027;-87
2022/09/28 05:37:40;;;;;;;15.93;7.55;;;;;;;;;;10486444;22;20021;-87
2022/09/28 05:41:42;;;;;;;17.00;8.88;;;;;;;;;;10488674;22;20362;-87
2022/09/28 05:45:47;;;;;;;15.43;8.02;;;;;;;;;;10491905;22;20018;-88
2022/09/28 05:49:55;;;;;;;12.52;7.82;;;;;;;;;;10510523;22;20021;-88
2022/09/28 05:53:59;;;;;;;11.07;6.10;;;;;;;;;;10491140;22;20095;-86
2022/09/28 05:58:03;;;;;;;11.00;6.95;;;;;;;;;;10489510;22;20388;-88
2022/09/28 06:02:08;;;;;;;13.48;7.88;;;;;;;;;;10492644;22;20023;-88
2022/09/28 06:06:12;;;;;;;9.55;5.97;;;;;;;;;;10492349;22;20022;-87
2022/09/28 06:10:15;;;;;;;10.30;6.05;;;;;;;;;;10492018;22;20094;-87
2022/09/28 06:14:17;;;;;;;9.48;5.97;;;;;;;;;;10492829;22;20023;-87
2022/09/28 06:18:20;;;;;;;9.27;5.65;;;;;;;;;;10492798;22;20014;-87
2022/09/28 06:22:24;;;;;;;11.32;5.40;;;;;;;;;;10491099;22;20335;-87
2022/09/28 06:26:26;;;;;;;10.30;5.65;;;;;;;;;;10491555;22;20015;-87
2022/09/28 06:30:32;;;;;;;9.23;5.43;;;;;;;;;;10492396;22;20027;-86
2022/09/28 06:34:35;;;;;;;8.00;4.80;;;;;;;;;;10508495;22;20121;-87
2022/09/28 06:38:39;;;;;;;9.20;5.03;;;;;;;;;;10488870;22;20443;-87
2022/09/28 06:42:42;;;;;;;7.55;4.68;;;;;;;;;;10490454;22;20433;-87
2022/09/28 06:46:44;;;;;;;10.05;5.50;;;;;;;;;;10490999;22;20023;-89
2022/09/28 06:50:47;;;;;;;10.57;5.18;;;;;;;;;;10490018;22;20427;-87
2022/09/28 06:54:51;;;;;;;6.38;4.07;;;;;;;;;;10490468;22;20363;-87
2022/09/28 06:58:54;;;;;;;8.80;4.90;;;;;;;;;;10490551;22;20018;-88
2022/09/28 07:02:57;;;;;;;8.05;4.60;;;;;;;;;;10490796;22;20023;-86
2022/09/28 07:06:59;;;;;;;5.78;3.97;;;;;;;;;;10502273;22;20018;-87
2022/09/28 07:11:08;;;;;;;6.80;4.80;;;;;;;;;;10487162;22;20439;-88
2022/09/28 07:16:04;;;;;;;8.07;4.60;;;;;;;;;;10486390;22;20426;-87
2022/09/28 07:20:12;;;;;;;8.18;4.00;;;;;;;;;;10486027;22;20094;-89
2022/09/28 07:24:20;;;;;;;8.82;4.00;;;;;;;;;;10419237;22;21097;-89
2022/09/28 07:28:27;;;;;;;8.00;3.40;;;;;;;;;;10399605;22;20448;-90
2022/09/28 07:32:36;;;;;;;6.45;3.60;;;;;;;;;;10399582;22;20030;-87
2022/09/28 07:36:41;;;;;;;5.07;3.53;;;;;;;;;;10399951;22;20016;-90
2022/09/28 07:45:52;;;;;;;4.68;2.85;;;;;;;;;;10400389;22;20523;-89
2022/09/28 07:50:01;;;;;;;4.30;2.90;;;;;;;;;;10382231;22;20371;-89
2022/09/28 07:54:05;;;;;;;5.45;2.70;;;;;;;;;;10383033;22;20023;-87
2022/09/28 07:58:12;;;;;;;5.68;2.72;;;;;;;;;;10398582;22;20098;-88
2022/09/28 08:02:16;;;;;;;4.53;2.80;;;;;;;;;;10397193;22;20019;-87
2022/09/28 08:06:24;;;;;;;6.22;3.20;;;;;;;;;;10398614;22;20095;-88
2022/09/28 08:10:31;;;;;;;5.07;2.55;;;;;;;;;;10399915;22;20428;-87
2022/09/28 08:14:36;;;;;;;5.40;2.70;;;;;;;;;;10382394;22;20019;-89
2022/09/28 08:18:41;;;;;;;6.38;2.58;;;;;;;;;;10399070;22;20135;-88
2022/09/28 08:22:47;;;;;;;4.95;2.35;;;;;;;;;;10382106;22;20363;-87
2022/09/28 08:26:52;;;;;;;4.15;2.58;;;;;;;;;;10381607;22;20111;-89
2022/09/28 08:31:00;;;;;;;5.20;2.50;;;;;;;;;;10381276;22;20015;-89
2022/09/28 08:35:06;;;;;;;4.03;2.70;;;;;;;;;;10397948;22;20043;-88
2022/09/28 08:39:10;;;;;;;4.80;2.90;;;;;;;;;;10380434;22;20019;-88
2022/09/28 08:43:31;;;;;;;4.05;2.50;;;;;;;;;;10382992;22;20448;-86
2022/09/28 08:52:16;;;;;;;4.85;2.20;;;;;;;;;;10387167;22;20016;-88
2022/09/28 08:56:31;;;;;;;6.93;2.78;;;;;;;;;;10403839;22;20063;-87
2022/09/28 09:00:39;;;;;;;4.18;2.20;;;;;;;;;;10402329;22;20046;-87
2022/09/28 09:04:43;;;;;;;4.55;2.38;;;;;;;;;;10386372;22;20468;-87
2022/09/28 09:08:58;;;;;;;5.30;2.65;;;;;;;;;;10386159;22;20098;-87
2022/09/28 09:13:18;;;;;;;3.63;2.53;;;;;;;;;;10403112;22;20015;-88
2022/09/28 09:17:31;;;;;;;4.53;2.60;;;;;;;;;;10386824;22;20016;-88
2022/09/28 09:21:41;;;;;;;3.35;2.53;;;;;;;;;;10401088;22;20075;-90
2022/09/28 09:25:55;;;;;;;4.30;2.45;;;;;;;;;;10399211;22;20016;-89
2022/09/28 09:30:07;;;;;;;4.35;2.25;;;;;;;;;;10398835;22;20066;-89
2022/09/28 09:35:05;;;;;;;4.50;2.35;;;;;;;;;;10388137;22;20514;-89
2022/09/28 09:44:59;;;;;;;3.03;2.13;;;;;;;;;;10098096;23;20032;-90
2022/09/28 09:49:40;;;;;;;3.55;2.25;;;;;;;;;;10198907;23;20025;-90
2022/09/28 09:59:13;;;;;;;3.38;2.42;;;;;;;;;;10380587;22;20026;-87
2022/09/28 10:03:24;;;;;;;4.82;2.83;;;;;;;;;;10380665;22;20020;-88
2022/09/28 10:07:38;;;;;;;4.72;2.70;;;;;;;;;;10379676;22;20031;-88
2022/09/28 10:11:47;;;;;;;4.25;2.40;;;;;;;;;;10399792;22;20020;-86
2022/09/28 10:15:51;;;;;;;3.70;2.30;;;;;;;;;;10400880;22;20016;-88
2022/09/28 10:19:56;;;;;;;2.53;1.80;;;;;;;;;;10385888;22;20096;-87
2022/09/28 10:24:01;;;;;;;2.75;2.13;;;;;;;;;;10385837;22;20012;-87
2022/09/28 10:28:06;;;;;;;4.38;2.17;;;;;;;;;;10402794;22;20019;-87
2022/09/28 10:32:20;;;;;;;3.70;1.90;;;;;;;;;;10388824;22;20047;-86
2022/09/28 10:36:25;;;;;;;3.00;1.90;;;;;;;;;;10406549;22;20103;-85
2022/09/28 10:40:34;;;;;;;3.05;2.00;;;;;;;;;;10389572;22;20024;-86
2022/09/28 10:44:51;;;;;;;4.40;2.05;;;;;;;;;;10406431;22;20027;-87
2022/09/28 10:48:58;;;;;;;3.45;2.03;;;;;;;;;;10406478;22;20024;-86
2022/09/28 10:53:12;;;;;;;2.97;2.20;;;;;;;;;;10389307;22;20127;-88
2022/09/28 10:57:28;;;;;;;7.97;3.47;;;;;;;;;;10390496;22;20452;-87
2022/09/28 11:01:33;;;;;;;3.20;2.20;;;;;;;;;;10406287;22;20031;-87
2022/09/28 11:05:38;;;;;;;2.63;1.75;;;;;;;;;;10389641;22;20512;-89
2022/09/28 11:09:42;;;;;;;3.03;1.80;;;;;;;;;;10389056;22;20024;-87
2022/09/28 11:13:48;;;;;;;2.67;2.00;;;;;;;;;;10389023;22;20046;-87
2022/09/28 11:17:51;;;;;;;6.75;2.90;;;;;;;;;;10405940;22;20035;-87
2022/09/28 11:21:54;;;;;;;3.38;2.03;;;;;;;;;;10388997;22;20463;-86
2022/09/28 11:25:59;;;;;;;2.00;1.80;;;;;;;;;;10388827;22;20019;-87
2022/09/28 11:30:03;;;;;;;3.58;2.00;;;;;;;;;;10405787;22;20015;-87
2022/09/28 11:34:15;;;;;;;2.38;1.88;;;;;;;;;;10361388;22;20049;-87
2022/09/28 11:38:33;;;;;;;5.30;2.28;;;;;;;;;;10405700;22;20384;-87
2022/09/28 11:42:46;;;;;;;3.10;1.85;;;;;;;;;;10405456;22;20392;-86
2022/09/28 11:46:59;;;;;;;2.95;1.95;;;;;;;;;;10405720;22;20020;-87
2022/09/28 11:51:08;;;;;;;3.80;2.20;;;;;;;;;;10405638;22;20020;-86
2022/09/28 11:55:18;;;;;;;2.65;2.03;;;;;;;;;;10399571;22;20082;-87
2022/09/28 11:59:27;;;;;;;3.65;2.15;;;;;;;;;;10388395;22;20054;-86
2022/09/28 12:03:39;;;;;;;3.50;2.05;;;;;;;;;;10405452;22;20475;-87
2022/09/28 12:07:46;;;;;;;3.97;2.20;;;;;;;;;;10405360;22;20023;-87
2022/09/28 12:11:54;;;;;;;3.67;1.90;;;;;;;;;;10387918;22;20035;-87
2022/09/28 12:16:01;;;;;;;3.42;2.20;;;;;;;;;;10405132;22;20027;-87
2022/09/28 12:20:16;;;;;;;4.55;2.15;;;;;;;;;;10404820;22;20500;-86
2022/09/28 12:24:25;;;;;;;4.00;1.88;;;;;;;;;;10387951;22;20020;-87
2022/09/28 12:28:33;;;;;;;6.10;2.22;;;;;;;;;;10404524;22;20463;-89
2022/09/28 12:32:41;;;;;;;2.28;1.70;;;;;;;;;;10402380;22;20016;-86
2022/09/28 12:36:59;;;;;;;5.05;1.90;;;;;;;;;;10402496;22;20024;-88
2022/09/28 12:41:15;;;;;;;2.90;2.00;;;;;;;;;;10358080;22;20051;-88
2022/09/28 12:45:32;;;;;;;4.90;2.05;;;;;;;;;;10385465;22;20475;-89
2022/09/28 12:49:47;;;;;;;3.75;1.90;;;;;;;;;;10402391;22;20024;-87
2022/09/28 12:54:01;;;;;;;3.30;2.00;;;;;;;;;;10400842;22;20027;-88
2022/09/28 12:58:16;;;;;;;4.50;1.80;;;;;;;;;;10385084;22;20020;-87
2022/09/28 13:03:02;;;;;;;3.72;1.70;;;;;;;;;;10401712;22;20027;-86
2022/09/28 13:07:09;;;;;;;2.95;1.63;;;;;;;;;;10376569;22;20091;-87
2022/09/28 13:11:20;;;;;;;3.40;1.70;;;;;;;;;;10400830;22;20032;-86
2022/09/28 13:15:40;;;;;;;2.22;1.60;;;;;;;;;;10397439;22;20133;-87
2022/09/28 13:19:57;;;;;;;2.63;1.48;;;;;;;;;;10398358;22;20024;-88
2022/09/28 13:24:16;;;;;;;3.47;2.10;;;;;;;;;;10381881;22;20423;-88
2022/09/28 13:28:25;;;;;;;1.92;1.40;;;;;;;;;;10398030;22;20023;-88
2022/09/28 13:32:32;;;;;;;3.25;1.42;;;;;;;;;;10398269;22;20390;-87
2022/09/28 13:36:41;;;;;;;2.78;1.50;;;;;;;;;;10398787;22;20476;-87
2022/09/28 13:41:12;;;;;;;2.53;1.80;;;;;;;;;;10398309;22;20047;-88
2022/09/28 13:45:39;;;;;;;2.60;1.45;;;;;;;;;;10398650;22;20698;-87
2022/09/28 13:50:02;;;;;;;1.98;1.60;;;;;;;;;;10380752;22;20020;-89
2022/09/28 13:54:39;;;;;;;3.60;1.33;;;;;;;;;;10395620;22;20030;-88
2022/09/28 13:59:06;;;;;;;1.73;1.50;;;;;;;;;;10381881;22;20261;-88
2022/09/28 14:09:09;;;;;;;1.65;1.40;;;;;;;;;;10333713;22;20489;-88
2022/09/28 14:22:50;;;;;;;4.80;2.30;;;;;;;;;;10380350;22;20051;-86
2022/09/28 14:27:31;;;;;;;9.93;5.32;;;;;;;;;;10355799;22;20030;-88
2022/09/28 14:31:47;;;;;;;6.22;3.42;;;;;;;;;;10383032;22;20015;-88
2022/09/28 14:36:00;;;;;;;2.10;2.00;;;;;;;;;;10395853;22;20038;-87
2022/09/28 14:45:09;;;;;;;5.10;3.57;;;;;;;;;;10382811;22;20012;-86
2022/09/28 14:49:49;;;;;;;5.07;3.80;;;;;;;;;;10382926;22;20020;-87
2022/09/28 14:53:53;;;;;;;3.05;2.20;;;;;;;;;;10404610;22;20352;-86
2022/09/28 14:57:58;;;;;;;2.70;1.60;;;;;;;;;;10387210;22;20031;-86
2022/09/28 15:02:09;;;;;;;12.23;6.82;;;;;;;;;;10401111;22;20030;-88
2022/09/28 15:06:17;;;;;;;4.72;2.10;;;;;;;;;;10388288;22;20487;-87
2022/09/28 15:10:30;;;;;;;5.68;2.10;;;;;;;;;;10405850;22;20085;-86
2022/09/28 15:14:35;;;;;;;7.30;4.90;;;;;;;;;;10405299;22;20019;-87
2022/09/28 15:19:10;;;;;;;5.68;4.13;;;;;;;;;;10404827;22;20019;-87
2022/09/28 15:23:27;;;;;;;7.38;4.22;;;;;;;;;;10378293;22;20558;-86
2022/09/28 15:27:37;;;;;;;4.68;3.58;;;;;;;;;;10403113;22;20523;-88
2022/09/28 15:31:40;;;;;;;41.20;24.23;;;;;;;;;;10403467;22;20436;-88
2022/09/28 15:35:50;;;;;;;13.57;9.77;;;;;;;;;;10386319;22;20032;-88
2022/09/28 15:39:59;;;;;;;8.90;6.68;;;;;;;;;;10403496;22;20019;-87
2022/09/28 15:44:29;;;;;;;12.27;8.10;;;;;;;;;;10403420;22;20398;-87
2022/09/28 15:48:39;;;;;;;17.73;12.55;;;;;;;;;;10404143;22;20020;-89
2022/09/28 15:52:46;;;;;;;34.90;19.05;;;;;;;;;;10404679;22;20047;-89
2022/09/28 15:56:58;;;;;;;24.40;12.68;;;;;;;;;;10386854;22;20023;-88
2022/09/28 16:01:34;;;;;;;12.57;9.32;;;;;;;;;;10403430;22;20024;-88
2022/09/28 16:05:45;;;;;;;15.90;8.85;;;;;;;;;;10358897;22;20015;-87
2022/09/28 16:10:05;;;;;;;7.70;4.40;;;;;;;;;;10402416;22;20027;-87
2022/09/28 16:14:21;;;;;;;10.40;5.10;;;;;;;;;;10402815;22;20437;-87
2022/09/28 16:18:25;;;;;;;9.30;5.10;;;;;;;;;;10402922;22;20090;-88
2022/09/28 16:22:28;;;;;;;44.80;21.42;;;;;;;;;;10386401;22;20475;-87
2022/09/28 16:26:33;;;;;;;20.25;11.52;;;;;;;;;;10380198;22;20026;-88
2022/09/28 16:30:41;;;;;;;16.75;9.48;;;;;;;;;;10380652;22;20023;-87
2022/09/28 16:34:43;;;;;;;22.58;11.20;;;;;;;;;;10397107;22;20053;-87
2022/09/28 16:38:46;;;;;;;12.68;8.63;;;;;;;;;;10380165;22;20474;-87
2022/09/28 16:42:49;;;;;;;17.02;10.45;;;;;;;;;;10379878;22;20031;-87
2022/09/28 16:46:55;;;;;;;11.88;7.10;;;;;;;;;;10380762;22;20099;-86
2022/09/28 16:50:58;;;;;;;21.25;19.00;;;;;;;;;;10395907;22;20098;-86
2022/09/28 16:55:16;;;;;;;9.93;6.35;;;;;;;;;;10380228;22;20026;-87
2022/09/28 16:59:18;;;;;;;18.15;11.23;;;;;;;;;;10397946;22;20334;-88
2022/09/28 17:03:23;;;;;;;11.38;7.28;;;;;;;;;;10380276;22;20077;-88
2022/09/28 17:07:27;;;;;;;11.80;7.60;;;;;;;;;;10379361;22;20456;-87
2022/09/28 17:11:31;;;;;;;25.10;14.35;;;;;;;;;;10378555;22;20039;-87
2022/09/28 17:15:34;;;;;;;13.30;8.23;;;;;;;;;;10379727;22;20455;-87
2022/09/28 17:19:38;;;;;;;13.35;7.53;;;;;;;;;;10381104;22;20023;-87
2022/09/28 17:23:40;;;;;;;48.47;23.75;;;;;;;;;;10380228;22;20031;-87
2022/09/28 17:27:46;;;;;;;21.25;12.05;;;;;;;;;;10380506;22;20432;-87
2022/09/28 17:31:49;;;;;;;34.38;18.75;;;;;;;;;;10399230;22;20026;-87
2022/09/28 17:35:57;;;;;;;16.88;12.10;;;;;;;;;;10384981;22;20020;-86
2022/09/28 17:40:00;;;;;;;16.33;9.77;;;;;;;;;;10402259;22;20102;-87
2022/09/28 17:44:03;;;;;;;17.23;12.32;;;;;;;;;;10385788;22;20106;-87
2022/09/28 17:48:07;;;;;;;11.57;6.95;;;;;;;;;;10388077;22;20023;-87
2022/09/28 17:52:12;;;;;;;12.48;7.63;;;;;;;;;;10390627;22;20016;-88
2022/09/28 17:56:16;;;;;;;22.05;12.85;;;;;;;;;;10407799;22;20046;-88
2022/09/28 18:00:34;;;;;;;7.38;4.70;;;;;;;;;;10389626;22;20019;-86
2022/09/28 18:04:51;;;;;;;11.93;5.93;;;;;;;;;;10407121;22;20016;-87
2022/09/28 18:09:14;;;;;;;14.95;7.63;;;;;;;;;;10407061;22;20094;-88
2022/09/28 18:13:40;;;;;;;9.85;5.38;;;;;;;;;;10406344;22;20099;-88
2022/09/28 18:18:21;;;;;;;5.13;2.70;;;;;;;;;;10387754;22;20047;-88
2022/09/28 18:22:56;;;;;;;6.20;2.75;;;;;;;;;;10390041;22;20043;-86
2022/09/28 18:27:24;;;;;;;9.00;3.33;;;;;;;;;;10407212;22;20098;-86
2022/09/28 18:31:43;;;;;;;10.82;3.97;;;;;;;;;;10404699;22;20517;-87
2022/09/28 18:35:58;;;;;;;11.23;4.70;;;;;;;;;;10399767;22;20027;-88
2022/09/28 18:40:18;;;;;;;12.23;5.43;;;;;;;;;;10405631;22;20020;-86
2022/09/28 18:44:35;;;;;;;21.42;7.88;;;;;;;;;;10405860;22;20035;-85
2022/09/28 18:48:53;;;;;;;21.15;11.43;;;;;;;;;;10403776;22;20015;-87
2022/09/28 18:53:18;;;;;;;9.20;5.10;;;;;;;;;;10388746;22;20609;-87
2022/09/28 18:57:45;;;;;;;9.52;4.35;;;;;;;;;;10405988;22;20347;-86
2022/09/28 19:02:01;;;;;;;17.15;11.07;;;;;;;;;;10387658;22;20073;-85
2022/09/28 19:06:08;;;;;;;15.63;10.50;;;;;;;;;;10405995;22;20024;-85
2022/09/28 19:10:11;;;;;;;11.15;6.03;;;;;;;;;;10405918;22;20095;-85
2022/09/28 19:14:14;;;;;;;13.63;7.10;;;;;;;;;;10387963;22;20543;-85
2022/09/28 19:18:19;;;;;;;12.20;7.68;;;;;;;;;;10385963;22;20023;-87
2022/09/28 19:22:22;;;;;;;28.38;12.88;;;;;;;;;;10391656;22;20019;-85
2022/09/28 19:26:26;;;;;;;22.10;7.97;;;;;;;;;;10388091;22;20505;-87
2022/09/28 19:30:29;;;;;;;18.75;7.00;;;;;;;;;;10388083;22;20503;-87
2022/09/28 19:34:36;;;;;;;11.57;5.70;;;;;;;;;;10387881;22;20047;-86
2022/09/28 19:38:41;;;;;;;19.15;5.40;;;;;;;;;;10389943;22;20352;-86
2022/09/28 19:42:43;;;;;;;14.60;6.47;;;;;;;;;;10386418;22;20038;-86
2022/09/28 19:46:46;;;;;;;16.92;8.65;;;;;;;;;;10383793;22;20016;-86
2022/09/28 19:50:57;;;;;;;16.10;7.60;;;;;;;;;;10384062;22;20498;-86
2022/09/28 19:54:59;;;;;;;13.30;5.47;;;;;;;;;;10404170;22;20020;-85
2022/09/28 19:59:03;;;;;;;12.32;5.55;;;;;;;;;;10388173;22;20020;-86
2022/09/28 20:03:06;;;;;;;6.75;3.72;;;;;;;;;;10387233;22;20016;-87
2022/09/28 20:07:09;;;;;;;4.90;3.20;;;;;;;;;;10388250;22;20020;-85
2022/09/28 20:11:12;;;;;;;9.57;7.43;;;;;;;;;;10388301;22;20465;-85
2022/09/28 20:15:15;;;;;;;6.80;5.20;;;;;;;;;;10388051;22;20069;-85
2022/09/28 20:19:20;;;;;;;6.03;3.75;;;;;;;;;;10387906;22;20091;-85
2022/09/28 20:23:24;;;;;;;6.50;2.97;;;;;;;;;;10404916;22;20027;-85
2022/09/28 20:27:28;;;;;;;5.15;3.35;;;;;;;;;;10387789;22;20022;-87
2022/09/28 20:31:30;;;;;;;7.63;3.53;;;;;;;;;;10388267;22;20377;-86
2022/09/28 20:35:34;;;;;;;6.38;4.05;;;;;;;;;;10387122;22;20023;-87
2022/09/28 20:39:39;;;;;;;9.95;5.45;;;;;;;;;;10404530;22;20467;-86
2022/09/28 20:43:41;;;;;;;7.78;5.07;;;;;;;;;;10387598;22;20022;-86
2022/09/28 20:47:44;;;;;;;10.02;6.35;;;;;;;;;;10387628;22;20020;-86
2022/09/28 20:51:46;;;;;;;18.98;11.82;;;;;;;;;;10387698;22;20173;-86
2022/09/28 20:55:57;;;;;;;6.78;3.85;;;;;;;;;;10387552;22;20096;-85
2022/09/28 21:00:00;;;;;;;9.75;5.50;;;;;;;;;;10387414;22;20023;-85
2022/09/28 21:04:05;;;;;;;7.63;5.50;;;;;;;;;;10387501;22;20091;-85
2022/09/28 21:08:07;;;;;;;14.90;7.22;;;;;;;;;;10404203;22;20398;-85
2022/09/28 21:12:11;;;;;;;15.45;5.38;;;;;;;;;;10387396;22;20027;-85
2022/09/28 21:16:16;;;;;;;10.52;7.15;;;;;;;;;;10386589;22;20019;-85
2022/09/28 21:20:18;;;;;;;7.50;3.90;;;;;;;;;;10387019;22;20352;-85
2022/09/28 21:24:21;;;;;;;8.00;3.80;;;;;;;;;;10387029;22;20019;-85
2022/09/28 21:28:25;;;;;;;13.70;6.88;;;;;;;;;;10387240;22;20059;-85
2022/09/28 21:32:28;;;;;;;6.80;4.25;;;;;;;;;;10386983;22;20095;-85
2022/09/28 21:36:31;;;;;;;15.15;7.57;;;;;;;;;;10386381;22;20030;-85
2022/09/28 21:40:34;;;;;;;8.30;5.03;;;;;;;;;;10387013;22;20020;-85
2022/09/28 21:44:38;;;;;;;7.68;3.40;;;;;;;;;;10387124;22;20058;-86
2022/09/28 21:48:40;;;;;;;12.48;6.40;;;;;;;;;;10386994;22;20039;-85
2022/09/28 21:52:42;;;;;;;8.40;4.38;;;;;;;;;;10386936;22;20023;-86
2022/09/28 21:56:45;;;;;;;12.15;4.85;;;;;;;;;;10386978;22;20028;-86
2022/09/28 22:00:53;;;;;;;9.90;4.00;;;;;;;;;;10387020;22;20023;-85
2022/09/28 22:04:55;;;;;;;8.77;3.65;;;;;;;;;;10403697;22;20468;-85
2022/09/28 22:08:58;;;;;;;8.27;4.30;;;;;;;;;;10386955;22;20047;-85
2022/09/28 22:13:00;;;;;;;6.90;3.78;;;;;;;;;;10386712;22;20016;-86
2022/09/28 22:17:04;;;;;;;9.23;4.00;;;;;;;;;;10386817;22;20444;-86
2022/09/28 22:21:09;;;;;;;9.35;4.30;;;;;;;;;;10386755;22;20706;-86
2022/09/28 22:25:11;;;;;;;7.32;4.32;;;;;;;;;;10386906;22;20023;-86
2022/09/28 22:29:13;;;;;;;10.35;4.70;;;;;;;;;;10389816;22;20016;-86
2022/09/28 22:33:17;;;;;;;9.52;4.65;;;;;;;;;;10389702;22;20047;-86
2022/09/28 22:37:20;;;;;;;11.35;4.93;;;;;;;;;;10389528;22;20466;-86
2022/09/28 22:41:23;;;;;;;10.73;3.60;;;;;;;;;;10391161;22;20069;-86
2022/09/28 22:45:25;;;;;;;11.43;3.88;;;;;;;;;;10389700;22;20019;-86
2022/09/28 22:49:30;;;;;;;9.85;4.40;;;;;;;;;;10389739;22;20431;-87
2022/09/28 22:53:33;;;;;;;8.57;4.03;;;;;;;;;;10391478;22;20019;-86
2022/09/28 22:57:35;;;;;;;8.05;4.00;;;;;;;;;;10389473;22;20352;-86
2022/09/28 23:01:37;;;;;;;7.38;3.92;;;;;;;;;;10389155;22;20019;-87
2022/09/28 23:05:41;;;;;;;8.20;4.38;;;;;;;;;;10389410;22;20075;-86
2022/09/28 23:09:44;;;;;;;7.40;3.90;;;;;;;;;;10389034;22;20024;-86
2022/09/28 23:13:49;;;;;;;7.82;4.25;;;;;;;;;;10389025;22;20016;-86
2022/09/28 23:17:52;;;;;;;6.90;3.65;;;;;;;;;;10406029;22;20019;-86
2022/09/28 23:21:57;;;;;;;7.95;4.32;;;;;;;;;;10388859;22;20047;-86
2022/09/28 23:26:00;;;;;;;8.63;4.32;;;;;;;;;;10405828;22;20026;-85
2022/09/28 23:30:02;;;;;;;8.95;4.05;;;;;;;;;;10388884;22;20019;-85
2022/09/28 23:34:06;;;;;;;9.40;4.45;;;;;;;;;;10388674;22;20020;-86
2022/09/28 23:38:12;;;;;;;9.60;3.92;;;;;;;;;;10387356;22;20046;-86
2022/09/28 23:42:15;;;;;;;9.75;4.20;;;;;;;;;;10405619;22;20025;-86
2022/09/28 23:46:17;;;;;;;9.07;4.50;;;;;;;;;;10388660;22;20046;-86
2022/09/28 23:50:19;;;;;;;8.10;4.13;;;;;;;;;;10388610;22;20065;-87
2022/09/28 23:54:23;;;;;;;8.05;3.60;;;;;;;;;;10388453;22;20051;-85
2022/09/28 23:58:26;;;;;;;9.93;5.03;;;;;;;;;;10388405;22;20024;-85
